createdAt,value
2022-11-14T00:02:40.767Z,17.90
2022-11-14T00:05:45.245Z,17.80
2022-11-14T00:08:47.178Z,17.80
2022-11-14T00:11:49.170Z,17.80
2022-11-14T00:14:52.026Z,17.80
2022-11-14T00:17:54.028Z,17.80
2022-11-14T00:20:56.250Z,17.80
2022-11-14T00:23:58.286Z,17.80
2022-11-14T00:27:00.580Z,17.80
2022-11-14T00:30:02.701Z,17.80
2022-11-14T00:33:04.893Z,17.80
2022-11-14T00:36:07.138Z,17.80
2022-11-14T00:39:13.435Z,17.80
2022-11-14T00:42:15.549Z,17.80
2022-11-14T00:45:17.657Z,17.80
2022-11-14T00:48:20.285Z,17.80
2022-11-14T00:51:23.585Z,17.80
2022-11-14T00:54:26.818Z,17.80
2022-11-14T00:57:31.680Z,17.70
2022-11-14T01:00:34.887Z,17.70
2022-11-14T01:03:37.042Z,17.70
2022-11-14T01:06:39.058Z,17.60
2022-11-14T01:09:41.380Z,17.60
2022-11-14T01:12:43.430Z,17.50
2022-11-14T01:15:48.965Z,17.50
2022-11-14T01:18:51.030Z,17.50
2022-11-14T01:21:53.070Z,17.50
2022-11-14T01:24:55.353Z,17.50
2022-11-14T01:27:57.388Z,17.50
2022-11-14T01:31:15.156Z,17.50
2022-11-14T01:34:17.291Z,17.60
2022-11-14T01:37:19.405Z,17.60
2022-11-14T01:40:23.368Z,17.60
2022-11-14T01:43:28.810Z,17.70
2022-11-14T01:46:37.188Z,17.60
2022-11-14T01:49:44.095Z,17.60
2022-11-14T01:52:46.715Z,17.50
2022-11-14T01:55:49.222Z,17.50
2022-11-14T01:59:00.628Z,17.50
2022-11-14T02:02:12.901Z,17.50
2022-11-14T02:05:18.029Z,17.50
2022-11-14T02:08:21.571Z,17.60
2022-11-14T02:11:24.022Z,17.60
2022-11-14T02:14:28.206Z,17.60
2022-11-14T02:17:31.398Z,17.70
2022-11-14T02:20:43.126Z,17.70
2022-11-14T02:23:45.327Z,17.70
2022-11-14T02:26:50.386Z,17.70
2022-11-14T02:29:54.221Z,17.70
2022-11-14T02:33:10.468Z,17.80
2022-11-14T02:36:13.169Z,17.80
2022-11-14T02:39:15.217Z,17.80
2022-11-14T02:42:17.320Z,17.80
2022-11-14T02:45:20.996Z,17.80
2022-11-14T02:48:23.059Z,17.80
2022-11-14T02:51:25.048Z,17.80
2022-11-14T02:54:27.209Z,17.80
2022-11-14T02:57:29.398Z,17.80
2022-11-14T03:00:31.676Z,17.80
2022-11-14T03:03:33.768Z,17.80
2022-11-14T03:06:35.812Z,17.80
2022-11-14T03:09:37.807Z,17.80
2022-11-14T03:12:40.260Z,17.80
2022-11-14T03:15:42.278Z,17.80
2022-11-14T03:18:44.603Z,17.80
2022-11-14T03:21:46.640Z,17.70
2022-11-14T03:24:48.672Z,17.70
2022-11-14T03:27:50.691Z,17.70
2022-11-14T03:30:52.694Z,17.70
2022-11-14T03:33:54.753Z,17.70
2022-11-14T03:36:56.872Z,17.70
2022-11-14T03:39:59.009Z,17.60
2022-11-14T03:43:01.064Z,17.60
2022-11-14T03:46:03.896Z,17.60
2022-11-14T03:49:06.379Z,17.60
2022-11-14T03:52:08.530Z,17.60
2022-11-14T03:55:10.602Z,17.60
2022-11-14T03:58:12.833Z,17.60
2022-11-14T04:01:14.955Z,17.60
2022-11-14T04:04:17.001Z,17.60
2022-11-14T04:07:19.094Z,17.50
2022-11-14T04:10:21.276Z,17.50
2022-11-14T04:13:24.497Z,17.50
2022-11-14T04:16:27.489Z,17.60
2022-11-14T04:19:29.564Z,17.60
2022-11-14T04:22:31.507Z,17.60
2022-11-14T04:25:33.574Z,17.60
2022-11-14T04:28:35.617Z,17.50
2022-11-14T04:31:37.676Z,17.50
2022-11-14T04:34:39.883Z,17.50
2022-11-14T04:37:41.880Z,17.50
2022-11-14T04:40:51.601Z,17.40
2022-11-14T04:43:53.798Z,17.40
2022-11-14T04:46:55.858Z,17.40
2022-11-14T04:49:57.868Z,17.40
2022-11-14T04:53:00.220Z,17.40
2022-11-14T04:56:02.708Z,17.40
2022-11-14T04:59:04.760Z,17.40
2022-11-14T05:02:07.225Z,17.30
2022-11-14T05:05:09.739Z,17.30
2022-11-14T05:08:11.807Z,17.40
2022-11-14T05:11:18.745Z,17.30
2022-11-14T05:14:22.015Z,17.30
2022-11-14T05:17:28.649Z,17.40
2022-11-14T05:20:31.249Z,17.30
2022-11-14T05:23:33.335Z,17.30
2022-11-14T05:26:35.405Z,17.30
2022-11-14T05:29:37.456Z,17.30
2022-11-14T05:32:39.544Z,17.20
2022-11-14T05:35:41.531Z,17.20
2022-11-14T05:38:43.873Z,17.20
2022-11-14T05:41:45.917Z,17.20
2022-11-14T05:44:48.063Z,17.20
2022-11-14T05:47:54.251Z,17.20
2022-11-14T05:50:58.094Z,17.20
2022-11-14T05:54:00.248Z,17.20
2022-11-14T05:57:02.558Z,17.10
2022-11-14T06:00:06.062Z,17.10
2022-11-14T06:03:08.337Z,17.10
2022-11-14T06:06:12.988Z,17.20
2022-11-14T06:09:15.178Z,17.20
2022-11-14T06:12:17.253Z,17.10
2022-11-14T06:15:19.501Z,17.10
2022-11-14T06:18:21.515Z,17.20
2022-11-14T06:21:25.618Z,17.10
2022-11-14T06:24:27.860Z,17.10
2022-11-14T06:27:30.426Z,17.20
2022-11-14T06:30:32.801Z,17.20
2022-11-14T06:33:36.696Z,17.20
2022-11-14T06:36:39.224Z,17.20
2022-11-14T06:39:41.470Z,17.10
2022-11-14T06:42:44.431Z,17.10
2022-11-14T06:45:46.494Z,17.00
2022-11-14T06:48:49.935Z,16.90
2022-11-14T06:51:52.395Z,16.90
2022-11-14T06:54:54.504Z,16.90
2022-11-14T06:57:57.796Z,16.90
2022-11-14T07:01:07.832Z,17.00
2022-11-14T07:04:10.184Z,17.10
2022-11-14T07:07:12.166Z,17.10
2022-11-14T07:10:14.494Z,17.10
2022-11-14T07:13:16.511Z,17.10
2022-11-14T07:16:19.301Z,17.20
2022-11-14T07:19:21.364Z,17.30
2022-11-14T07:22:23.519Z,17.30
2022-11-14T07:25:25.632Z,17.20
2022-11-14T07:28:29.280Z,17.20
2022-11-14T07:31:31.848Z,17.20
2022-11-14T07:34:34.478Z,17.20
2022-11-14T07:37:39.387Z,17.30
2022-11-14T07:40:41.407Z,17.30
2022-11-14T07:43:44.108Z,17.30
2022-11-14T07:46:46.228Z,17.30
2022-11-14T07:49:48.561Z,17.30
2022-11-14T07:52:52.463Z,17.30
2022-11-14T07:55:54.891Z,17.40
2022-11-14T07:58:59.029Z,17.40
2022-11-14T08:02:02.635Z,17.40
2022-11-14T08:05:05.137Z,17.50
2022-11-14T08:08:07.296Z,17.50
2022-11-14T08:11:09.774Z,17.50
2022-11-14T08:14:11.799Z,17.50
2022-11-14T08:17:13.933Z,17.50
2022-11-14T08:20:16.160Z,17.60
2022-11-14T08:23:18.479Z,17.60
2022-11-14T08:26:20.620Z,17.70
2022-11-14T08:29:22.859Z,17.70
2022-11-14T08:32:25.233Z,17.80
2022-11-14T08:35:27.307Z,17.80
2022-11-14T08:38:31.238Z,17.90
2022-11-14T08:41:33.533Z,17.90
2022-11-14T08:44:35.823Z,17.90
2022-11-14T08:47:38.123Z,18.00
2022-11-14T08:50:40.203Z,18.00
2022-11-14T08:53:42.369Z,18.00
2022-11-14T08:56:44.536Z,18.00
2022-11-14T08:59:46.723Z,18.00
2022-11-14T09:02:48.823Z,18.10
2022-11-14T09:05:54.049Z,18.10
2022-11-14T09:08:56.244Z,18.10
2022-11-14T09:11:58.434Z,18.10
2022-11-14T09:15:00.634Z,18.20
2022-11-14T09:18:02.909Z,18.30
2022-11-14T09:21:08.468Z,18.40
2022-11-14T09:24:10.608Z,18.50
2022-11-14T09:27:13.516Z,18.70
2022-11-14T09:30:16.033Z,18.90
2022-11-14T09:33:20.262Z,19.10
2022-11-14T09:36:23.277Z,19.20
2022-11-14T09:39:25.397Z,19.30
2022-11-14T09:42:51.062Z,19.40
2022-11-14T09:45:53.902Z,19.40
2022-11-14T09:48:56.686Z,19.50
2022-11-14T09:52:21.550Z,19.70
2022-11-14T09:55:36.464Z,19.80
2022-11-14T09:58:41.072Z,19.90
2022-11-14T10:02:00.583Z,20.00
2022-11-14T10:05:11.484Z,20.30
2022-11-14T10:08:16.337Z,21.00
2022-11-14T10:11:21.512Z,22.10
2022-11-14T10:14:50.073Z,22.60
2022-11-14T10:17:55.133Z,22.90
2022-11-14T10:21:10.901Z,23.00
2022-11-14T10:24:46.485Z,23.20
2022-11-14T10:28:07.192Z,23.20
2022-11-14T10:31:27.218Z,23.00
2022-11-14T10:34:38.380Z,22.90
2022-11-14T10:38:02.246Z,23.10
2022-11-14T10:41:19.214Z,24.60
2022-11-14T10:44:36.951Z,25.60
2022-11-14T10:47:46.427Z,25.30
2022-11-14T10:51:00.327Z,25.10
2022-11-14T10:54:27.390Z,24.70
2022-11-14T10:57:30.362Z,24.40
2022-11-14T11:00:32.623Z,24.00
2022-11-14T11:03:43.098Z,23.70
2022-11-14T11:06:45.232Z,23.50
2022-11-14T11:10:17.547Z,23.30
2022-11-14T11:13:32.961Z,23.20
2022-11-14T11:16:38.357Z,23.00
2022-11-14T11:19:43.608Z,23.00
2022-11-14T11:22:45.728Z,23.00
2022-11-14T11:26:00.477Z,23.00
2022-11-14T11:29:04.505Z,23.00
2022-11-14T11:32:09.389Z,22.90
2022-11-14T11:35:16.916Z,22.60
2022-11-14T11:38:20.140Z,22.60
2022-11-14T11:42:07.703Z,22.30
2022-11-14T11:45:02.588Z,22.30
2022-11-14T11:48:16.523Z,22.20
2022-11-14T11:51:24.548Z,22.40
2022-11-14T11:54:36.469Z,22.70
2022-11-14T11:57:44.343Z,23.00
2022-11-14T12:00:46.471Z,23.40
2022-11-14T12:03:53.451Z,23.40
2022-11-14T12:07:08.670Z,23.60
2022-11-14T12:10:24.219Z,23.80
2022-11-14T12:13:44.997Z,23.80
2022-11-14T12:16:57.893Z,23.90
2022-11-14T12:20:18.621Z,24.00
2022-11-14T12:23:33.039Z,24.10
2022-11-14T12:27:11.291Z,24.20
2022-11-14T12:30:29.518Z,24.20
2022-11-14T12:33:38.319Z,24.00
2022-11-14T12:36:43.201Z,24.00
2022-11-14T12:40:00.327Z,24.00
2022-11-14T12:43:04.071Z,24.00
2022-11-14T12:46:09.323Z,24.20
2022-11-14T12:49:46.600Z,24.30
2022-11-14T12:52:50.901Z,24.30
2022-11-14T12:56:33.204Z,24.30
2022-11-14T12:59:45.508Z,24.40
2022-11-14T13:03:02.257Z,24.30
2022-11-14T13:06:32.451Z,24.10
2022-11-14T13:09:59.245Z,24.00
2022-11-14T13:13:29.991Z,23.80
2022-11-14T13:16:51.686Z,23.60
2022-11-14T13:20:12.340Z,23.60
2022-11-14T13:23:27.163Z,23.40
2022-11-14T13:26:33.126Z,23.40
2022-11-14T13:29:41.314Z,23.30
2022-11-14T13:32:46.789Z,23.40
2022-11-14T13:35:54.335Z,23.40
2022-11-14T13:39:24.256Z,23.40
2022-11-14T13:42:30.978Z,23.40
2022-11-14T13:46:01.598Z,23.40
2022-11-14T13:49:36.457Z,23.40
2022-11-14T13:52:47.735Z,23.40
2022-11-14T13:56:01.477Z,23.30
2022-11-14T13:59:37.680Z,23.00
2022-11-14T14:03:03.359Z,22.80
2022-11-14T14:06:12.399Z,22.60
2022-11-14T14:09:29.300Z,22.50
2022-11-14T14:12:52.700Z,22.40
2022-11-14T14:16:22.860Z,22.40
2022-11-14T14:20:01.727Z,22.40
2022-11-14T14:23:25.203Z,22.20
2022-11-14T14:26:55.821Z,22.10
2022-11-14T14:30:09.106Z,22.00
2022-11-14T14:33:15.679Z,21.80
2022-11-14T14:36:23.956Z,21.70
2022-11-14T14:39:28.046Z,21.60
2022-11-14T14:42:41.705Z,21.60
2022-11-14T14:45:51.532Z,21.40
2022-11-14T14:48:54.143Z,21.30
2022-11-14T14:51:58.713Z,21.10
2022-11-14T14:55:03.137Z,21.10
2022-11-14T14:58:23.496Z,20.80
2022-11-14T15:01:35.422Z,20.80
2022-11-14T15:04:40.270Z,20.70
2022-11-14T15:07:42.342Z,20.50
2022-11-14T15:10:45.143Z,20.50
2022-11-14T15:13:52.668Z,20.40
2022-11-14T15:16:56.452Z,20.40
2022-11-14T15:19:58.597Z,20.40
2022-11-14T15:23:05.972Z,20.40
2022-11-14T15:26:14.837Z,20.40
2022-11-14T15:29:23.082Z,20.30
2022-11-14T15:32:26.475Z,20.40
2022-11-14T15:35:37.549Z,20.40
2022-11-14T15:38:44.256Z,20.40
2022-11-14T15:41:46.560Z,20.30
2022-11-14T15:44:49.617Z,20.30
2022-11-14T15:48:00.399Z,20.30
2022-11-14T15:51:02.522Z,20.20
2022-11-14T15:54:06.010Z,20.30
2022-11-14T15:57:16.826Z,20.20
2022-11-14T16:00:19.559Z,20.20
2022-11-14T16:03:23.031Z,20.20
2022-11-14T16:06:25.221Z,20.20
2022-11-14T16:09:27.504Z,20.10
2022-11-14T16:12:29.723Z,20.10
2022-11-14T16:15:31.856Z,19.90
2022-11-14T16:18:34.087Z,19.90
2022-11-14T16:21:37.717Z,19.90
2022-11-14T16:24:39.994Z,19.80
2022-11-14T16:27:42.036Z,19.80
2022-11-14T16:30:44.108Z,19.70
2022-11-14T16:33:46.257Z,19.70
2022-11-14T16:36:48.866Z,19.60
2022-11-14T16:39:50.958Z,19.60
2022-11-14T16:42:58.051Z,19.50
2022-11-14T16:46:05.057Z,19.50
2022-11-14T16:49:07.143Z,19.50
2022-11-14T16:52:11.038Z,19.40
2022-11-14T16:55:13.272Z,19.40
2022-11-14T16:58:15.300Z,19.40
2022-11-14T17:01:21.060Z,19.30
2022-11-14T17:04:23.879Z,19.20
2022-11-14T17:07:25.990Z,19.20
2022-11-14T17:10:29.096Z,19.20
2022-11-14T17:13:32.010Z,19.10
2022-11-14T17:16:34.873Z,19.20
2022-11-14T17:19:45.828Z,19.20
2022-11-14T17:22:48.989Z,19.10
2022-11-14T17:25:51.055Z,19.10
2022-11-14T17:28:53.250Z,19.10
2022-11-14T17:31:55.566Z,19.10
2022-11-14T17:34:58.101Z,19.00
2022-11-14T17:38:00.534Z,19.00
2022-11-14T17:41:06.583Z,19.00
2022-11-14T17:44:09.922Z,18.90
2022-11-14T17:47:12.223Z,18.90
2022-11-14T17:50:14.583Z,18.80
2022-11-14T17:53:17.123Z,18.70
2022-11-14T17:56:24.628Z,18.70
2022-11-14T17:59:26.714Z,18.70
2022-11-14T18:02:29.009Z,18.70
2022-11-14T18:05:31.717Z,18.70
2022-11-14T18:08:35.377Z,18.70
2022-11-14T18:11:38.621Z,18.70
2022-11-14T18:14:40.895Z,18.70
2022-11-14T18:17:42.981Z,18.70
2022-11-14T18:20:45.060Z,18.70
2022-11-14T18:23:52.122Z,18.60
2022-11-14T18:26:55.677Z,18.60
2022-11-14T18:30:07.946Z,18.60
2022-11-14T18:33:15.903Z,18.60
2022-11-14T18:36:18.507Z,18.60
2022-11-14T18:39:20.553Z,18.60
2022-11-14T18:42:22.855Z,18.60
2022-11-14T18:45:24.954Z,18.60
2022-11-14T18:48:27.222Z,18.60
2022-11-14T18:51:30.982Z,18.60
2022-11-14T18:54:33.144Z,18.50
2022-11-14T18:57:36.089Z,18.50
2022-11-14T19:00:38.280Z,18.50
2022-11-14T19:03:40.846Z,18.50
2022-11-14T19:06:43.844Z,18.50
2022-11-14T19:09:46.054Z,18.50
2022-11-14T19:12:48.992Z,18.50
2022-11-14T19:15:51.308Z,18.50
2022-11-14T19:18:54.773Z,18.50
2022-11-14T19:21:57.832Z,18.50
2022-11-14T19:24:59.810Z,18.50
2022-11-14T19:28:01.889Z,18.50
2022-11-14T19:31:08.453Z,18.50
2022-11-14T19:34:10.498Z,18.50
2022-11-14T19:37:12.767Z,18.50
2022-11-14T19:40:14.974Z,18.60
2022-11-14T19:43:21.043Z,18.60
2022-11-14T19:46:25.390Z,18.60
2022-11-14T19:49:27.535Z,18.60
2022-11-14T19:52:29.553Z,18.60
2022-11-14T19:55:32.286Z,18.60
2022-11-14T19:58:38.055Z,18.50
2022-11-14T20:01:42.220Z,18.50
2022-11-14T20:04:46.806Z,18.50
2022-11-14T20:07:48.884Z,18.50
2022-11-14T20:11:02.638Z,18.50
2022-11-14T20:14:06.212Z,18.50
2022-11-14T20:17:08.187Z,18.50
2022-11-14T20:20:11.465Z,18.50
2022-11-14T20:23:13.743Z,18.50
2022-11-14T20:26:17.099Z,18.50
2022-11-14T20:29:19.127Z,18.50
2022-11-14T20:32:21.213Z,18.50
2022-11-14T20:35:23.315Z,18.50
2022-11-14T20:38:25.318Z,18.50
2022-11-14T20:41:27.386Z,18.40
2022-11-14T20:44:29.478Z,18.40
2022-11-14T20:47:32.455Z,18.40
2022-11-14T20:50:34.548Z,18.40
2022-11-14T20:53:36.575Z,18.40
2022-11-14T20:56:38.712Z,18.40
2022-11-14T20:59:42.009Z,18.40
2022-11-14T21:02:44.087Z,18.40
2022-11-14T21:05:46.384Z,18.40
2022-11-14T21:08:48.462Z,18.40
2022-11-14T21:11:50.507Z,18.40
2022-11-14T21:14:52.913Z,18.40
2022-11-14T21:17:55.140Z,18.40
2022-11-14T21:21:04.571Z,18.50
2022-11-14T21:24:07.383Z,18.50
2022-11-14T21:27:13.141Z,18.50
2022-11-14T21:30:15.462Z,18.50
2022-11-14T21:33:17.510Z,18.50
2022-11-14T21:36:43.866Z,18.50
2022-11-14T21:39:42.493Z,18.50
2022-11-14T21:42:44.578Z,18.50
2022-11-14T21:46:02.118Z,18.50
2022-11-14T21:49:04.398Z,18.50
2022-11-14T21:52:06.695Z,18.60
2022-11-14T21:55:08.858Z,18.50
2022-11-14T21:58:12.875Z,18.50
2022-11-14T22:01:37.766Z,18.50
2022-11-14T22:04:39.897Z,18.50
2022-11-14T22:07:42.299Z,18.50
2022-11-14T22:10:44.418Z,18.40
2022-11-14T22:13:46.487Z,18.40
2022-11-14T22:16:48.885Z,18.40
2022-11-14T22:19:50.898Z,18.30
2022-11-14T22:22:54.835Z,18.30
2022-11-14T22:25:58.917Z,18.30
2022-11-14T22:29:00.983Z,18.30
2022-11-14T22:32:03.006Z,18.40
2022-11-14T22:35:05.882Z,18.40
2022-11-14T22:38:07.936Z,18.40
2022-11-14T22:41:13.519Z,18.40
2022-11-14T22:44:17.184Z,18.40
2022-11-14T22:47:19.431Z,18.40
2022-11-14T22:50:21.701Z,18.40
2022-11-14T22:53:24.120Z,18.40
2022-11-14T22:56:29.238Z,18.40
2022-11-14T22:59:31.335Z,18.40
2022-11-14T23:02:33.338Z,18.40
2022-11-14T23:05:39.289Z,18.40
2022-11-14T23:08:43.678Z,18.30
2022-11-14T23:11:49.133Z,18.30
2022-11-14T23:14:51.485Z,18.30
2022-11-14T23:17:55.478Z,18.20
2022-11-14T23:21:14.854Z,18.20
2022-11-14T23:24:19.613Z,18.30
2022-11-14T23:27:21.797Z,18.30
2022-11-14T23:30:23.965Z,18.20
2022-11-14T23:33:26.080Z,18.20
2022-11-14T23:36:28.759Z,18.30
2022-11-14T23:39:30.946Z,18.30
2022-11-14T23:42:33.311Z,18.30
2022-11-14T23:45:35.444Z,18.30
2022-11-14T23:48:37.555Z,18.30
2022-11-14T23:51:39.733Z,18.30
2022-11-14T23:54:41.778Z,18.40
2022-11-14T23:57:44.958Z,18.40
